首页
METAR-TAF:

METAR-TAF

机场 :

汤普森, 曼尼托巴, 加拿大

纬度: 55-48N, 经度: 097-51W, 海拔: 204米

当前天气观测

该预报发布于34分钟前的03:00 UTC
风速5节,风向东北
温度 8°C
湿度 57%
气压 1021 hPa
能見度: 24.1公里
少量云层高于21000英尺

METAR: CYTH 280300Z 04005KT 15SM FEW210 08/00 A3016 RMK CI1 SLP227

时间: 22:34 (03:34 UTC)

预报

该预报发布于2小时和54分钟前的00:40 UTC
预报有效从28日的 01点(UTC)到 28日的 13点(UTC)
风速10节,风向东北
能見度: 10公里
少量云层高于8000英尺
成为
从 28日的 02点(UTC)到 28日的 04点(UTC)
风速5节,风向东北

TAF: CYTH 280040Z 2801/2813 04010KT P6SM FEW080 BECMG 2802/2804 04005KT RMK NXT FCST BY 280700Z

超过4000个机场的气象观测和天气预报(METAR&TAF报告)。

可查询的气象台以黄色和红色小点在地图上表示。

将鼠标移到小点上方,可查看气象台名称。

然后点击查看天气观测和预报。

如需切换地图:点击带黑十字的绿色按钮放大地图;点击带横线的绿色按钮缩小地图;或者点击绿色箭头查看邻近地区的地图。


METAR-TAF: